Time;durP1;ratioP1;P1;durP2;ratioP2;P2;SDS_P1;SDS_P2;PMS_P1;PMS_P2;Temp;Humidity;BMP_temperature;BMP_pressure;BME280_temperature;BME280_humidity;BME280_pressure;Samples;Min_cycle;Max_cycle;Signal;HPM_P1;HPM_P2
2022/04/25 00:00:00;;;;;;;1.70;1.07;;;17.50;64.10;;;;;;5204008;28;20216;-64
2022/04/25 00:02:54;;;;;;;1.20;1.10;;;17.50;64.20;;;;;;5204699;28;20217;-64
2022/04/25 00:05:46;;;;;;;2.37;1.00;;;17.50;64.10;;;;;;5206008;28;20243;-64
2022/04/25 00:08:38;;;;;;;1.10;1.00;;;17.50;64.20;;;;;;5205919;28;20198;-64
2022/04/25 00:11:30;;;;;;;1.47;1.30;;;17.50;64.20;;;;;;5205410;28;20197;-64
2022/04/25 00:14:23;;;;;;;2.10;1.30;;;17.50;64.20;;;;;;5204460;28;20198;-64
2022/04/25 00:17:15;;;;;;;1.70;1.40;;;17.50;64.10;;;;;;5205377;28;20196;-64
2022/04/25 00:20:10;;;;;;;1.77;1.17;;;17.50;64.20;;;;;;5192142;28;20588;-64
2022/04/25 00:23:04;;;;;;;1.33;1.10;;;17.50;64.20;;;;;;5203832;28;20224;-64
2022/04/25 00:25:56;;;;;;;1.67;1.00;;;17.50;64.20;;;;;;5204016;28;20281;-64
2022/04/25 00:28:48;;;;;;;1.77;1.30;;;17.50;64.10;;;;;;5204661;28;20217;-64
2022/04/25 00:31:40;;;;;;;1.60;1.30;;;17.50;64.10;;;;;;5204215;28;20194;-64
2022/04/25 00:34:32;;;;;;;2.00;1.47;;;17.50;64.20;;;;;;5204287;28;20194;-64
2022/04/25 00:37:26;;;;;;;1.80;1.10;;;17.50;64.20;;;;;;5185466;28;20262;-64
2022/04/25 00:40:19;;;;;;;2.70;1.10;;;17.50;64.20;;;;;;5199871;28;20224;-61
2022/04/25 00:43:11;;;;;;;1.20;1.03;;;17.50;64.20;;;;;;5203909;28;20292;-64
2022/04/25 00:46:04;;;;;;;1.20;1.10;;;17.50;64.20;;;;;;5204206;28;20205;-64
2022/04/25 00:48:56;;;;;;;1.80;1.30;;;17.50;64.20;;;;;;5203657;28;20198;-65
2022/04/25 00:51:52;;;;;;;1.40;1.17;;;17.50;64.20;;;;;;5198973;28;20473;-64
2022/04/25 00:54:45;;;;;;;1.80;1.43;;;17.50;64.10;;;;;;5199260;28;20197;-64
2022/04/25 00:57:38;;;;;;;1.20;1.03;;;17.50;64.20;;;;;;5187434;28;20576;-64
2022/04/25 01:00:31;;;;;;;1.40;1.17;;;17.50;64.20;;;;;;5190372;28;20234;-64
2022/04/25 01:03:23;;;;;;;1.27;1.10;;;17.50;64.20;;;;;;5202482;28;20214;-64
2022/04/25 01:06:15;;;;;;;2.23;1.20;;;17.50;64.10;;;;;;5204404;28;20661;-62
2022/04/25 01:09:07;;;;;;;1.77;1.10;;;17.50;64.20;;;;;;5201921;28;20264;-64
2022/04/25 01:12:01;;;;;;;1.27;1.00;;;17.50;64.20;;;;;;5203101;28;20216;-64
2022/04/25 01:14:57;;;;;;;1.40;1.30;;;17.40;64.10;;;;;;5203861;28;20687;-64
2022/04/25 01:17:49;;;;;;;1.20;1.10;;;17.50;64.10;;;;;;5203773;28;20200;-65
2022/04/25 01:20:42;;;;;;;1.23;1.13;;;17.50;64.00;;;;;;5203029;28;20328;-64
2022/04/25 01:29:55;;;;;;;1.40;1.30;;;17.40;64.00;;;;;;5203619;28;20561;-65
2022/04/25 01:32:48;;;;;;;1.77;1.10;;;17.50;64.10;;;;;;5203690;28;20224;-64
2022/04/25 01:35:40;;;;;;;1.63;1.30;;;17.50;64.10;;;;;;5203856;28;20201;-64
2022/04/25 01:38:33;;;;;;;1.50;1.07;;;17.50;64.10;;;;;;5203709;28;20193;-63
2022/04/25 01:41:26;;;;;;;1.50;1.20;;;17.50;64.10;;;;;;5203018;28;20297;-64
2022/04/25 01:44:19;;;;;;;1.43;1.20;;;17.50;64.10;;;;;;5204081;28;20194;-63
2022/04/25 01:47:11;;;;;;;1.77;1.23;;;17.50;64.10;;;;;;5203247;28;20202;-64
2022/04/25 01:50:04;;;;;;;1.43;1.20;;;17.40;64.10;;;;;;5202633;28;20200;-63
2022/04/25 01:52:56;;;;;;;1.33;1.10;;;17.50;64.10;;;;;;5193059;28;20213;-64
2022/04/25 01:55:48;;;;;;;1.97;1.20;;;17.50;64.10;;;;;;5202553;28;20194;-63
2022/04/25 01:58:41;;;;;;;2.90;1.10;;;17.50;64.10;;;;;;5203810;28;20202;-64
2022/04/25 02:01:33;;;;;;;1.87;1.30;;;17.50;64.10;;;;;;5205706;28;20212;-64
2022/04/25 02:04:25;;;;;;;1.10;1.00;;;17.40;64.10;;;;;;5208128;28;20581;-64
2022/04/25 02:07:18;;;;;;;2.07;1.33;;;17.40;64.10;;;;;;5207676;28;20534;-63
2022/04/25 02:10:10;;;;;;;1.57;1.30;;;17.40;64.00;;;;;;5206353;28;20194;-64
2022/04/25 02:13:02;;;;;;;1.50;1.10;;;17.40;64.00;;;;;;5188178;28;20268;-63
2022/04/25 02:15:58;;;;;;;1.57;1.27;;;17.50;64.10;;;;;;5196505;28;20194;-64
2022/04/25 02:18:51;;;;;;;1.50;0.97;;;17.40;64.00;;;;;;5207613;28;20274;-64
2022/04/25 02:21:43;;;;;;;2.03;1.20;;;17.50;64.10;;;;;;5206002;28;20229;-63
2022/04/25 02:24:35;;;;;;;1.97;1.27;;;17.40;64.00;;;;;;5206458;28;20197;-64
2022/04/25 02:27:27;;;;;;;1.47;1.20;;;17.40;63.90;;;;;;5207169;28;20205;-64
2022/04/25 02:30:20;;;;;;;1.50;1.00;;;17.40;64.00;;;;;;5206585;28;20186;-64
2022/04/25 02:33:13;;;;;;;1.33;1.20;;;17.40;63.90;;;;;;5206652;28;20262;-64
2022/04/25 02:36:06;;;;;;;1.50;1.23;;;17.50;64.00;;;;;;5206889;28;20576;-64
2022/04/25 02:38:58;;;;;;;1.40;1.10;;;17.50;64.10;;;;;;5206798;28;20610;-64
2022/04/25 02:41:50;;;;;;;1.67;1.10;;;17.50;64.10;;;;;;5213100;28;20229;-64
2022/04/25 02:44:42;;;;;;;1.97;1.20;;;17.40;64.00;;;;;;5206981;28;20201;-64
2022/04/25 02:47:34;;;;;;;1.27;1.07;;;17.40;64.00;;;;;;5206379;28;20190;-64
2022/04/25 02:50:28;;;;;;;1.67;1.10;;;17.40;64.00;;;;;;5206465;28;20194;-65
2022/04/25 02:53:20;;;;;;;1.10;1.00;;;17.40;64.10;;;;;;5207052;28;20228;-64
2022/04/25 02:56:12;;;;;;;1.60;1.00;;;17.40;64.10;;;;;;5207178;28;20190;-64
2022/04/25 02:59:04;;;;;;;1.30;1.10;;;17.40;64.00;;;;;;5206116;28;20684;-63
2022/04/25 03:01:56;;;;;;;1.77;1.27;;;17.40;64.00;;;;;;5205193;28;20213;-64
2022/04/25 03:04:48;;;;;;;1.30;1.10;;;17.50;64.10;;;;;;5202424;28;20194;-64
2022/04/25 03:07:41;;;;;;;1.67;1.10;;;17.40;64.00;;;;;;5202232;28;20194;-64
2022/04/25 03:10:33;;;;;;;0.80;0.80;;;17.40;64.00;;;;;;5206568;28;20194;-64
2022/04/25 03:13:26;;;;;;;1.53;1.00;;;17.50;64.10;;;;;;5204647;28;20221;-64
2022/04/25 03:16:19;;;;;;;1.10;1.00;;;17.40;64.00;;;;;;5206309;28;20201;-62
2022/04/25 03:19:11;;;;;;;1.60;1.23;;;17.40;63.90;;;;;;5206490;28;20233;-64
2022/04/25 03:22:03;;;;;;;1.73;1.30;;;17.40;64.00;;;;;;5204937;28;20243;-64
2022/04/25 03:24:56;;;;;;;1.07;0.97;;;17.40;64.00;;;;;;5206069;28;20190;-65
2022/04/25 03:27:49;;;;;;;0.70;0.70;;;17.50;64.10;;;;;;5205036;28;20205;-63
2022/04/25 03:30:42;;;;;;;1.57;1.13;;;17.40;64.00;;;;;;5205961;28;20198;-64
2022/04/25 03:33:35;;;;;;;1.57;1.17;;;17.40;64.00;;;;;;5184191;28;20217;-64
2022/04/25 03:36:27;;;;;;;1.47;1.20;;;17.40;63.90;;;;;;5202781;28;20284;-64
2022/04/25 03:39:19;;;;;;;1.90;1.40;;;17.40;63.80;;;;;;5205885;28;20194;-63
2022/04/25 03:42:13;;;;;;;1.37;1.13;;;17.40;63.80;;;;;;5206107;28;20226;-64
2022/04/25 03:45:08;;;;;;;1.27;0.93;;;17.50;63.80;;;;;;5205625;28;20198;-63
2022/04/25 03:48:01;;;;;;;1.10;0.97;;;17.50;63.80;;;;;;5205333;28;20276;-63
2022/04/25 03:50:53;;;;;;;1.50;1.00;;;17.50;63.80;;;;;;5205317;28;20198;-64
2022/04/25 03:53:45;;;;;;;1.27;1.00;;;17.50;63.90;;;;;;5203461;28;20613;-64
2022/04/25 03:59:59;;;;;;;1.60;0.93;;;17.50;63.80;;;;;;5141372;28;20698;-64
2022/04/25 04:02:52;;;;;;;1.27;0.80;;;17.50;63.70;;;;;;5204870;28;20232;-65
2022/04/25 04:05:45;;;;;;;1.53;0.87;;;17.50;63.80;;;;;;5204556;28;20217;-64
2022/04/25 04:08:37;;;;;;;1.20;1.00;;;17.50;63.80;;;;;;5205441;28;20209;-64
2022/04/25 04:11:46;;;;;;;0.87;0.83;;;17.60;63.80;;;;;;5204120;28;20198;-64
2022/04/25 04:14:38;;;;;;;1.77;1.10;;;17.50;63.70;;;;;;5193603;28;20653;-64
2022/04/25 04:17:32;;;;;;;2.10;1.03;;;17.50;63.70;;;;;;5202868;28;20196;-64
2022/04/25 04:20:24;;;;;;;2.57;1.00;;;17.50;63.70;;;;;;5185530;28;20209;-64
2022/04/25 04:23:16;;;;;;;1.00;0.90;;;17.50;63.80;;;;;;5191383;28;20218;-63
2022/04/25 04:26:08;;;;;;;2.13;1.07;;;17.50;63.80;;;;;;5204600;28;20204;-64
2022/04/25 04:29:00;;;;;;;1.43;0.90;;;17.50;63.80;;;;;;5205257;28;20194;-64
2022/04/25 04:31:52;;;;;;;1.47;0.90;;;17.60;63.90;;;;;;5203807;28;20201;-63
2022/04/25 04:34:46;;;;;;;1.23;0.87;;;17.60;63.80;;;;;;5204340;28;20190;-64
2022/04/25 04:37:39;;;;;;;1.97;1.00;;;17.60;63.80;;;;;;5204561;28;20204;-64
2022/04/25 04:40:31;;;;;;;2.00;1.30;;;17.60;63.90;;;;;;5203495;28;20198;-64
2022/04/25 04:43:23;;;;;;;1.00;0.90;;;17.60;63.70;;;;;;5203291;28;20216;-64
2022/04/25 04:46:15;;;;;;;1.07;0.80;;;17.60;63.70;;;;;;5203388;28;20198;-64
2022/04/25 04:49:07;;;;;;;1.50;1.10;;;17.60;63.80;;;;;;5203763;28;20687;-64
2022/04/25 04:52:01;;;;;;;0.93;0.83;;;17.60;63.80;;;;;;5200258;28;20190;-64
2022/04/25 04:54:53;;;;;;;1.93;1.07;;;17.60;63.80;;;;;;5204390;28;20657;-64
2022/04/25 04:57:45;;;;;;;1.80;1.20;;;17.60;63.80;;;;;;5203699;28;20565;-64
2022/04/25 05:00:37;;;;;;;2.03;1.07;;;17.60;63.70;;;;;;5203587;28;20566;-63
2022/04/25 05:03:30;;;;;;;1.40;0.70;;;17.60;63.80;;;;;;5204053;28;20585;-63
2022/04/25 05:06:22;;;;;;;1.07;0.87;;;17.60;63.80;;;;;;5199954;28;20291;-63
2022/04/25 05:09:16;;;;;;;1.20;0.93;;;17.60;63.80;;;;;;5197232;28;20190;-64
2022/04/25 05:12:09;;;;;;;0.97;0.90;;;17.60;63.70;;;;;;5203497;28;20201;-64
2022/04/25 05:15:03;;;;;;;1.70;1.13;;;17.60;63.80;;;;;;5202867;28;20255;-64
2022/04/25 05:17:55;;;;;;;1.23;1.00;;;17.60;63.80;;;;;;5200381;28;20209;-64
2022/04/25 05:20:47;;;;;;;0.80;0.80;;;17.60;63.80;;;;;;5204636;28;20251;-64
2022/04/25 05:23:39;;;;;;;1.67;0.97;;;17.60;63.80;;;;;;5202812;28;20224;-63
2022/04/25 05:26:33;;;;;;;2.13;0.90;;;17.60;63.80;;;;;;5203117;28;20204;-64
2022/04/25 05:29:25;;;;;;;1.77;0.90;;;17.60;63.80;;;;;;5202897;28;20213;-64
2022/04/25 05:32:17;;;;;;;1.47;0.90;;;17.60;63.80;;;;;;5202783;28;20217;-64
2022/04/25 05:35:11;;;;;;;1.13;0.87;;;17.60;63.80;;;;;;5202860;28;20206;-64
2022/04/25 05:38:06;;;;;;;1.20;0.90;;;17.60;63.80;;;;;;5203231;28;20198;-63
2022/04/25 05:40:58;;;;;;;2.63;1.00;;;17.60;63.80;;;;;;5203002;28;20197;-64
2022/04/25 05:43:52;;;;;;;1.67;0.93;;;17.60;63.80;;;;;;5203256;28;20209;-64
2022/04/25 05:46:44;;;;;;;1.37;0.80;;;17.60;63.80;;;;;;5202019;28;20220;-64
2022/04/25 05:52:45;;;;;;;1.77;0.87;;;17.60;63.80;;;;;;5201303;28;20570;-64
2022/04/25 05:55:38;;;;;;;1.27;1.00;;;17.60;63.80;;;;;;5201537;28;20198;-64
2022/04/25 05:58:30;;;;;;;1.87;0.80;;;17.60;63.80;;;;;;5202696;28;20664;-64
2022/04/25 06:01:24;;;;;;;1.17;0.90;;;17.60;63.70;;;;;;5202913;28;20194;-63
2022/04/25 06:04:16;;;;;;;0.80;0.80;;;17.60;63.80;;;;;;5201017;28;20960;-64
2022/04/25 06:07:08;;;;;;;1.70;1.20;;;17.60;63.80;;;;;;5204171;28;20200;-64
2022/04/25 06:10:00;;;;;;;1.07;0.90;;;17.60;63.70;;;;;;5201401;28;20198;-64
2022/04/25 06:12:54;;;;;;;1.33;0.97;;;17.60;63.70;;;;;;5201385;28;20222;-61
2022/04/25 06:15:46;;;;;;;2.07;1.20;;;17.60;63.70;;;;;;5201934;28;20202;-63
2022/04/25 06:18:39;;;;;;;1.90;1.00;;;17.60;63.70;;;;;;5183818;28;20198;-61
2022/04/25 06:21:31;;;;;;;2.03;1.20;;;17.60;63.70;;;;;;5199354;28;20672;-68
2022/04/25 06:24:23;;;;;;;2.10;1.33;;;17.60;63.60;;;;;;5202410;28;20205;-59
2022/04/25 06:27:15;;;;;;;1.10;1.00;;;17.60;63.10;;;;;;5200544;28;20197;-61
2022/04/25 06:30:09;;;;;;;3.07;1.30;;;17.60;63.30;;;;;;5204277;28;20202;-61
2022/04/25 06:33:01;;;;;;;3.47;1.50;;;17.60;63.40;;;;;;5202639;28;20209;-60
2022/04/25 06:35:54;;;;;;;4.87;1.50;;;17.60;63.20;;;;;;5202909;28;20190;-61
2022/04/25 06:38:46;;;;;;;3.87;1.30;;;17.60;63.20;;;;;;5202647;28;20194;-60
2022/04/25 06:41:39;;;;;;;2.90;1.70;;;17.50;63.10;;;;;;5202376;28;20677;-61
2022/04/25 06:44:31;;;;;;;2.53;1.50;;;17.50;63.00;;;;;;5202548;28;20239;-60
2022/04/25 06:47:24;;;;;;;2.57;1.40;;;17.60;63.00;;;;;;5205261;28;20397;-59
2022/04/25 06:50:16;;;;;;;2.20;1.30;;;17.50;62.80;;;;;;5206547;28;20569;-61
2022/04/25 06:53:09;;;;;;;2.63;1.87;;;17.50;62.50;;;;;;5207335;28;20242;-61
2022/04/25 06:56:01;;;;;;;1.60;1.40;;;17.50;62.40;;;;;;5205452;28;20191;-59
2022/04/25 06:58:54;;;;;;;2.83;1.90;;;17.50;62.40;;;;;;5206611;28;20200;-61
2022/04/25 07:01:46;;;;;;;3.73;2.07;;;17.50;62.40;;;;;;5205490;28;20198;-61
2022/04/25 07:04:38;;;;;;;2.70;1.63;;;17.50;62.30;;;;;;5206827;28;20584;-60
2022/04/25 07:07:30;;;;;;;3.00;1.90;;;17.50;62.30;;;;;;5201903;28;20190;-61
2022/04/25 07:10:24;;;;;;;2.50;1.47;;;17.50;62.20;;;;;;5191439;28;20677;-61
2022/04/25 07:13:18;;;;;;;3.47;1.63;;;17.50;62.20;;;;;;5204843;28;20218;-61
2022/04/25 07:16:10;;;;;;;2.23;1.60;;;17.50;62.20;;;;;;5186799;28;20221;-66
2022/04/25 07:19:02;;;;;;;2.43;1.57;;;17.50;62.30;;;;;;5189506;28;20197;-66
2022/04/25 07:31:25;;;;;;;3.50;1.70;;;17.60;62.10;;;;;;5197432;28;20189;-66
2022/04/25 07:34:17;;;;;;;2.80;1.53;;;17.60;62.00;;;;;;5188696;28;20215;-61
2022/04/25 07:37:09;;;;;;;2.70;1.40;;;17.60;62.00;;;;;;5195744;28;20205;-61
2022/04/25 07:40:02;;;;;;;2.80;1.50;;;17.60;62.10;;;;;;5204283;28;20200;-69
2022/04/25 07:42:55;;;;;;;2.30;1.60;;;17.60;62.30;;;;;;5204649;28;20221;-64
2022/04/25 07:45:49;;;;;;;1.50;1.00;;;17.60;62.40;;;;;;5205835;28;20198;-65
2022/04/25 07:48:41;;;;;;;1.80;1.23;;;17.60;62.40;;;;;;5206066;28;20246;-65
2022/04/25 07:51:33;;;;;;;2.67;1.60;;;17.60;62.40;;;;;;5204990;28;20673;-65
2022/04/25 07:54:25;;;;;;;2.73;1.30;;;17.60;62.50;;;;;;5203908;28;20233;-65
2022/04/25 07:57:17;;;;;;;1.83;1.10;;;17.60;62.50;;;;;;5203016;28;20190;-65
2022/04/25 08:00:10;;;;;;;3.50;1.60;;;17.60;62.50;;;;;;5202876;28;20189;-66
2022/04/25 08:03:03;;;;;;;3.23;1.53;;;17.60;62.50;;;;;;5203256;28;20592;-68
2022/04/25 08:05:56;;;;;;;1.83;1.20;;;17.60;62.50;;;;;;5204165;28;20404;-65
2022/04/25 08:08:48;;;;;;;2.63;1.30;;;17.60;62.40;;;;;;5205338;28;20228;-65
2022/04/25 08:11:40;;;;;;;2.30;1.40;;;17.60;62.40;;;;;;5204445;28;20727;-65
2022/04/25 08:20:50;;;;;;;2.43;1.30;;;17.60;62.70;;;;;;5203273;28;20178;-69
2022/04/25 08:23:45;;;;;;;2.63;1.07;;;17.60;62.70;;;;;;5204746;28;20232;-68
2022/04/25 08:26:37;;;;;;;2.97;1.30;;;17.60;62.60;;;;;;5204612;28;20198;-68
2022/04/25 08:29:29;;;;;;;3.37;1.17;;;17.60;62.50;;;;;;5192917;28;20194;-69
2022/04/25 08:32:22;;;;;;;2.07;1.13;;;17.60;62.50;;;;;;5202376;28;20213;-68
2022/04/25 08:35:14;;;;;;;1.27;1.10;;;17.60;62.50;;;;;;5204828;28;20400;-69
2022/04/25 08:38:08;;;;;;;1.43;1.20;;;17.60;62.50;;;;;;5204987;28;20220;-69
2022/04/25 08:41:01;;;;;;;1.73;1.10;;;17.60;62.40;;;;;;5202800;28;20202;-69
2022/04/25 08:43:56;;;;;;;1.30;1.20;;;17.60;62.40;;;;;;5203449;28;20356;-69
2022/04/25 08:46:51;;;;;;;1.80;1.37;;;17.60;62.30;;;;;;5204893;28;20198;-69
2022/04/25 08:49:44;;;;;;;1.30;1.20;;;17.60;62.30;;;;;;5204768;28;20558;-69
2022/04/25 08:52:40;;;;;;;1.40;1.10;;;17.60;62.30;;;;;;5184585;28;20253;-69
2022/04/25 08:55:33;;;;;;;2.97;1.20;;;17.60;62.30;;;;;;5194916;28;20198;-69
2022/04/25 08:58:25;;;;;;;2.60;1.33;;;17.60;62.30;;;;;;5195606;28;20263;-66
2022/04/25 09:01:18;;;;;;;2.07;1.40;;;17.70;62.40;;;;;;5202080;28;20221;-69
2022/04/25 09:04:10;;;;;;;2.50;1.53;;;17.60;62.30;;;;;;5204346;28;20304;-68
2022/04/25 09:07:02;;;;;;;1.53;1.10;;;17.60;62.30;;;;;;5200746;28;20197;-68
2022/04/25 09:09:54;;;;;;;2.03;1.20;;;17.70;62.40;;;;;;5204007;28;20194;-68
2022/04/25 09:12:48;;;;;;;1.87;1.00;;;17.70;62.40;;;;;;5203889;28;20213;-68
2022/04/25 09:15:41;;;;;;;2.03;1.10;;;17.60;62.30;;;;;;5203997;28;20201;-69
2022/04/25 09:18:33;;;;;;;1.20;1.10;;;17.60;62.30;;;;;;5204023;28;20225;-68
2022/04/25 09:21:25;;;;;;;1.83;1.00;;;17.70;62.30;;;;;;5202878;28;20677;-66
2022/04/25 09:24:25;;;;;;;2.30;1.13;;;17.70;62.40;;;;;;5203950;28;20213;-68
2022/04/25 09:27:19;;;;;;;1.73;1.30;;;17.70;62.40;;;;;;5202708;28;20217;-68
2022/04/25 09:30:18;;;;;;;1.40;1.00;;;17.60;62.30;;;;;;5203635;28;20628;-68
2022/04/25 09:33:22;;;;;;;1.90;1.23;;;17.70;63.00;;;;;;5203852;28;20340;-69
2022/04/25 09:36:15;;;;;;;1.03;0.97;;;17.70;62.40;;;;;;5204008;28;20185;-68
2022/04/25 09:39:27;;;;;;;2.13;1.30;;;17.70;62.40;;;;;;5201446;28;20316;-69
2022/04/25 09:42:28;;;;;;;0.97;0.90;;;17.70;62.50;;;;;;5202104;28;20284;-68
2022/04/25 09:45:22;;;;;;;1.00;0.83;;;17.70;62.40;;;;;;5203733;28;20216;-68
2022/04/25 09:48:16;;;;;;;1.30;1.20;;;17.70;63.00;;;;;;5203910;28;20269;-69
2022/04/25 09:51:10;;;;;;;1.63;1.17;;;17.70;62.50;;;;;;5203311;28;20201;-68
2022/04/25 09:54:04;;;;;;;1.17;1.00;;;17.70;62.40;;;;;;5203448;28;20213;-68
2022/04/25 09:56:56;;;;;;;2.70;0.90;;;17.70;62.40;;;;;;5202844;28;20201;-69
2022/04/25 09:59:49;;;;;;;1.03;0.93;;;17.70;62.40;;;;;;5204371;28;20728;-68
2022/04/25 10:02:42;;;;;;;0.90;0.80;;;17.70;62.50;;;;;;5197240;28;20566;-69
2022/04/25 10:05:40;;;;;;;2.37;1.43;;;17.70;62.50;;;;;;5202985;28;20280;-68
2022/04/25 10:08:35;;;;;;;1.83;1.20;;;17.70;62.50;;;;;;5203223;28;20198;-68
2022/04/25 10:11:33;;;;;;;1.33;0.80;;;17.70;62.50;;;;;;5201748;28;20573;-66
2022/04/25 10:14:26;;;;;;;1.17;0.97;;;17.70;62.50;;;;;;5197813;28;20190;-68
2022/04/25 10:17:18;;;;;;;1.50;1.10;;;17.70;62.50;;;;;;5203755;28;20573;-68
2022/04/25 10:20:15;;;;;;;1.37;0.90;;;17.70;62.60;;;;;;5203103;28;20208;-68
2022/04/25 10:23:09;;;;;;;0.87;0.87;;;17.70;62.50;;;;;;5205868;28;20216;-69
2022/04/25 10:26:02;;;;;;;0.90;0.90;;;17.70;62.60;;;;;;5206456;28;20194;-68
2022/04/25 10:28:57;;;;;;;1.33;0.80;;;17.70;62.60;;;;;;5206852;28;20197;-69
2022/04/25 10:31:51;;;;;;;0.97;0.77;;;17.70;62.60;;;;;;5206922;28;20209;-69
2022/04/25 10:34:47;;;;;;;0.93;0.80;;;17.70;62.70;;;;;;5207443;28;20190;-69
2022/04/25 10:37:43;;;;;;;1.37;0.93;;;17.70;62.60;;;;;;5207233;28;20194;-69
2022/04/25 10:44:12;;;;;;;1.57;1.10;;;17.70;62.60;;;;;;5206453;28;20213;-69
2022/04/25 10:47:15;;;;;;;1.73;0.97;;;17.70;62.60;;;;;;5206490;28;20193;-69
2022/04/25 10:50:09;;;;;;;1.93;1.20;;;17.70;62.70;;;;;;5206996;28;20194;-69
2022/04/25 10:53:03;;;;;;;1.90;1.10;;;17.70;62.70;;;;;;5206293;28;20210;-65
2022/04/25 10:56:08;;;;;;;1.50;1.27;;;17.70;62.60;;;;;;5206516;28;20202;-65
2022/04/25 10:59:23;;;;;;;1.97;1.13;;;17.70;62.50;;;;;;5206755;28;20193;-65
2022/04/25 11:02:23;;;;;;;1.83;1.17;;;17.70;62.50;;;;;;5205533;28;20719;-65
2022/04/25 11:05:34;;;;;;;1.63;1.20;;;17.70;62.50;;;;;;5206482;28;20189;-66
2022/04/25 11:08:35;;;;;;;2.70;1.20;;;17.70;62.50;;;;;;5206728;28;20204;-68
2022/04/25 11:11:30;;;;;;;1.20;1.07;;;17.70;62.50;;;;;;5205941;28;20208;-66
2022/04/25 11:14:22;;;;;;;1.93;1.20;;;17.70;62.60;;;;;;5205317;28;20663;-68
2022/04/25 11:17:15;;;;;;;1.40;1.00;;;17.70;62.60;;;;;;5205650;28;20550;-68
2022/04/25 11:20:08;;;;;;;2.10;1.10;;;17.70;62.70;;;;;;5178873;28;20763;-66
2022/04/25 11:23:00;;;;;;;1.80;1.10;;;17.70;62.70;;;;;;5204799;28;20226;-68
2022/04/25 11:25:55;;;;;;;2.87;1.23;;;17.70;62.70;;;;;;5206685;28;20204;-67
2022/04/25 11:29:08;;;;;;;1.97;1.20;;;17.70;63.20;;;;;;5206795;28;20205;-68
2022/04/25 11:32:23;;;;;;;2.43;1.30;;;17.70;62.60;;;;;;5193622;28;20198;-68
2022/04/25 11:35:16;;;;;;;1.00;0.80;;;17.70;62.70;;;;;;5205371;28;20193;-69
2022/04/25 11:38:08;;;;;;;1.80;1.17;;;17.70;62.70;;;;;;5206021;28;20204;-69
2022/04/25 11:41:02;;;;;;;1.47;1.23;;;17.70;62.70;;;;;;5206001;28;20198;-68
2022/04/25 11:43:54;;;;;;;1.10;1.00;;;17.70;62.70;;;;;;5203832;28;20213;-68
2022/04/25 11:46:48;;;;;;;2.13;1.10;;;17.70;62.80;;;;;;5205036;28;20220;-69
2022/04/25 11:49:40;;;;;;;2.30;1.20;;;17.70;62.80;;;;;;5204122;28;20291;-68
2022/04/25 11:52:32;;;;;;;2.40;1.30;;;17.70;62.80;;;;;;5205389;28;20293;-68
2022/04/25 11:55:42;;;;;;;1.33;1.20;;;17.70;62.80;;;;;;5205355;28;20201;-66
2022/04/25 11:58:36;;;;;;;2.17;1.27;;;17.70;62.80;;;;;;5184664;28;20195;-69
2022/04/25 12:01:35;;;;;;;1.20;1.10;;;17.70;62.80;;;;;;5196112;28;20660;-66
2022/04/25 12:04:29;;;;;;;2.57;1.40;;;17.70;62.80;;;;;;5186827;28;20238;-60
2022/04/25 12:07:22;;;;;;;1.50;1.30;;;17.70;62.80;;;;;;5202528;28;20198;-63
2022/04/25 12:16:35;;;;;;;2.63;1.43;;;17.70;62.80;;;;;;5201204;28;20284;-62
2022/04/25 12:19:27;;;;;;;1.80;1.27;;;17.70;62.80;;;;;;5193457;28;20276;-62
2022/04/25 12:22:23;;;;;;;1.57;1.20;;;17.70;62.80;;;;;;5204768;28;20232;-62
2022/04/25 12:25:18;;;;;;;2.30;1.20;;;17.60;62.80;;;;;;5150453;23;20252;-61
2022/04/25 12:28:17;;;;;;;2.03;1.30;;;17.70;62.80;;;;;;5179173;28;20684;-60
2022/04/25 12:31:11;;;;;;;2.60;1.20;;;17.60;62.80;;;;;;5176918;28;20190;-61
2022/04/25 12:34:08;;;;;;;2.93;1.50;;;17.60;62.90;;;;;;5185369;28;20210;-60
2022/04/25 12:37:00;;;;;;;1.90;1.17;;;17.60;63.00;;;;;;5183537;28;20195;-61
2022/04/25 12:40:02;;;;;;;1.50;1.40;;;17.60;63.00;;;;;;5185266;28;20198;-61
2022/04/25 12:42:54;;;;;;;1.50;1.37;;;17.60;63.00;;;;;;5185002;28;20198;-60
2022/04/25 12:45:51;;;;;;;1.10;1.00;;;17.60;63.10;;;;;;5182131;28;20570;-61
2022/04/25 12:49:00;;;;;;;1.50;1.37;;;17.60;63.10;;;;;;5183849;28;20209;-61
2022/04/25 12:52:00;;;;;;;1.50;1.10;;;17.60;63.10;;;;;;5180530;28;20205;-59
2022/04/25 12:54:54;;;;;;;3.47;1.20;;;17.70;63.20;;;;;;5184861;28;20832;-61
2022/04/25 12:57:52;;;;;;;1.83;1.23;;;17.60;63.10;;;;;;5186491;28;20198;-63
2022/04/25 13:00:47;;;;;;;1.53;1.20;;;17.60;63.10;;;;;;5184526;28;20577;-61
2022/04/25 13:04:04;;;;;;;1.53;1.43;;;17.60;63.20;;;;;;5182298;28;20362;-62
2022/04/25 13:06:56;;;;;;;2.83;1.10;;;17.60;63.30;;;;;;5181994;28;20198;-61
2022/04/25 13:09:50;;;;;;;6.53;1.60;;;17.60;63.30;;;;;;5185048;28;20206;-62
2022/04/25 13:12:44;;;;;;;4.40;1.70;;;17.60;63.30;;;;;;5183217;28;20281;-62
2022/04/25 13:15:38;;;;;;;3.83;1.53;;;17.60;63.30;;;;;;5182784;28;20719;-59
2022/04/25 13:18:30;;;;;;;2.60;1.50;;;17.60;63.30;;;;;;5185226;28;20206;-61
2022/04/25 13:21:22;;;;;;;1.83;1.33;;;17.60;63.30;;;;;;5183626;28;20213;-61
2022/04/25 13:24:14;;;;;;;4.37;1.73;;;17.60;63.30;;;;;;5184101;28;20225;-61
2022/04/25 13:27:08;;;;;;;3.17;1.40;;;17.60;63.40;;;;;;5185397;28;20191;-61
2022/04/25 13:30:00;;;;;;;3.77;1.47;;;17.60;63.40;;;;;;5183717;28;20202;-61
2022/04/25 13:32:53;;;;;;;2.70;1.23;;;17.60;63.40;;;;;;5183529;28;20194;-61
2022/04/25 13:35:45;;;;;;;3.23;1.53;;;17.60;63.50;;;;;;5183976;28;20202;-61
2022/04/25 13:38:37;;;;;;;3.10;1.57;;;17.60;63.50;;;;;;5183974;28;20194;-62
2022/04/25 13:41:30;;;;;;;2.77;1.53;;;17.60;63.50;;;;;;5184682;28;20194;-63
2022/04/25 13:44:23;;;;;;;2.90;1.60;;;17.60;63.50;;;;;;5184653;28;20235;-63
2022/04/25 13:47:16;;;;;;;2.77;1.30;;;17.60;63.60;;;;;;5185137;28;20195;-63
2022/04/25 13:50:09;;;;;;;2.47;1.90;;;17.60;63.60;;;;;;5184282;28;20240;-62
2022/04/25 13:53:01;;;;;;;2.70;1.47;;;17.60;63.60;;;;;;5182371;28;20209;-64
2022/04/25 13:55:53;;;;;;;2.77;1.53;;;17.60;63.60;;;;;;5184982;28;20194;-62
2022/04/25 13:58:45;;;;;;;2.13;1.53;;;17.60;63.60;;;;;;5184502;28;20674;-62
2022/04/25 14:01:39;;;;;;;1.90;1.50;;;17.60;63.70;;;;;;5183397;28;20198;-62
2022/04/25 14:04:32;;;;;;;1.80;1.10;;;17.60;63.60;;;;;;5165425;28;20222;-61
2022/04/25 14:07:24;;;;;;;5.07;1.47;;;17.60;63.60;;;;;;5177522;28;20221;-65
2022/04/25 14:10:16;;;;;;;4.33;1.50;;;17.60;63.70;;;;;;5181489;28;20566;-65
2022/04/25 14:13:11;;;;;;;4.37;1.73;;;17.60;63.20;;;;;;5180149;28;20250;-65
2022/04/25 14:16:04;;;;;;;2.40;1.30;;;17.60;63.20;;;;;;5184399;28;20194;-65
2022/04/25 14:18:57;;;;;;;2.13;1.43;;;17.60;63.40;;;;;;5181258;28;20658;-66
2022/04/25 14:21:50;;;;;;;3.07;1.50;;;17.60;63.50;;;;;;5182004;28;20233;-66
2022/04/25 14:24:42;;;;;;;1.97;1.40;;;17.60;63.50;;;;;;5156335;28;20219;-66
2022/04/25 14:27:37;;;;;;;2.03;1.43;;;17.70;63.50;;;;;;5162005;28;20191;-65
2022/04/25 14:30:29;;;;;;;3.57;1.47;;;17.70;63.50;;;;;;5178158;28;20270;-66
2022/04/25 14:33:22;;;;;;;3.83;1.50;;;17.70;63.50;;;;;;5166567;28;20199;-65
2022/04/25 14:36:15;;;;;;;2.33;1.50;;;17.70;63.40;;;;;;5162056;28;20194;-65
2022/04/25 14:39:07;;;;;;;1.93;1.23;;;17.70;63.40;;;;;;5163453;28;20209;-65
2022/04/25 14:41:59;;;;;;;2.30;1.40;;;17.70;63.40;;;;;;5162810;28;20590;-65
2022/04/25 14:44:52;;;;;;;1.70;1.20;;;17.70;63.40;;;;;;5165177;28;20216;-66
2022/04/25 14:47:47;;;;;;;2.90;1.27;;;17.70;63.30;;;;;;5164457;28;20326;-65
2022/04/25 14:56:59;;;;;;;1.90;1.40;;;17.70;63.30;;;;;;5162267;28;20207;-64
2022/04/25 14:59:51;;;;;;;3.43;1.30;;;17.70;63.30;;;;;;5163843;28;20693;-65
2022/04/25 15:02:43;;;;;;;1.83;1.50;;;17.70;63.40;;;;;;5161140;28;20579;-65
2022/04/25 15:05:39;;;;;;;2.50;1.63;;;17.70;63.30;;;;;;5161477;28;20230;-65
2022/04/25 15:08:31;;;;;;;3.50;1.20;;;17.70;63.30;;;;;;5165472;28;20215;-64
2022/04/25 15:11:24;;;;;;;2.93;1.27;;;17.70;63.30;;;;;;5172964;28;20206;-65
2022/04/25 15:14:16;;;;;;;1.93;1.27;;;17.70;63.30;;;;;;5166830;28;20215;-65
2022/04/25 15:17:08;;;;;;;2.80;1.50;;;17.70;63.20;;;;;;5166585;28;20202;-64
2022/04/25 15:20:01;;;;;;;1.40;1.30;;;17.70;63.20;;;;;;5166514;28;20199;-65
2022/04/25 15:22:53;;;;;;;1.50;1.30;;;17.70;63.30;;;;;;5146633;28;20686;-65
2022/04/25 15:25:46;;;;;;;3.30;1.40;;;17.70;63.30;;;;;;5158497;28;20720;-64
2022/04/25 15:28:39;;;;;;;2.27;1.37;;;17.70;63.30;;;;;;5164810;28;20203;-64
2022/04/25 15:31:31;;;;;;;3.57;1.50;;;17.70;63.30;;;;;;5167724;28;20195;-65
2022/04/25 15:34:23;;;;;;;1.83;1.27;;;17.80;63.30;;;;;;5167176;28;20682;-65
2022/04/25 15:37:16;;;;;;;1.50;1.10;;;17.70;63.30;;;;;;5164496;28;20199;-65
2022/04/25 15:40:10;;;;;;;1.90;1.10;;;17.70;63.30;;;;;;5166584;28;20582;-65
2022/04/25 15:43:02;;;;;;;3.23;1.10;;;17.70;63.30;;;;;;5167539;28;20203;-65
2022/04/25 15:45:55;;;;;;;1.77;1.27;;;17.80;63.30;;;;;;5164654;28;20241;-65
2022/04/25 15:48:47;;;;;;;1.33;1.23;;;17.80;63.30;;;;;;5165273;28;20199;-65